sensor_id;sensor_type;location;lat;lon;timestamp;P1;durP1;ratioP1;P2;durP2;ratioP2
26696;SDS011;14312;52.614;13.496;2022-09-29T00:00:28;2.65;;;2.45;;
26696;SDS011;14312;52.614;13.496;2022-09-29T00:03:13;2.63;;;2.42;;
26696;SDS011;14312;52.614;13.496;2022-09-29T00:05:59;2.80;;;2.60;;
26696;SDS011;14312;52.614;13.496;2022-09-29T00:08:45;2.78;;;2.58;;
26696;SDS011;14312;52.614;13.496;2022-09-29T00:11:31;3.50;;;3.20;;
26696;SDS011;14312;52.614;13.496;2022-09-29T00:14:17;3.42;;;3.13;;
26696;SDS011;14312;52.614;13.496;2022-09-29T00:17:02;2.67;;;2.47;;
26696;SDS011;14312;52.614;13.496;2022-09-29T00:19:49;2.83;;;2.58;;
26696;SDS011;14312;52.614;13.496;2022-09-29T00:22:34;2.83;;;2.47;;
26696;SDS011;14312;52.614;13.496;2022-09-29T00:25:20;2.55;;;2.35;;
26696;SDS011;14312;52.614;13.496;2022-09-29T00:28:06;3.28;;;2.97;;
26696;SDS011;14312;52.614;13.496;2022-09-29T00:30:52;3.13;;;2.78;;
26696;SDS011;14312;52.614;13.496;2022-09-29T00:33:38;5.03;;;3.90;;
26696;SDS011;14312;52.614;13.496;2022-09-29T00:36:24;3.20;;;2.90;;
26696;SDS011;14312;52.614;13.496;2022-09-29T00:39:14;2.97;;;2.67;;
26696;SDS011;14312;52.614;13.496;2022-09-29T00:42:00;4.80;;;3.30;;
26696;SDS011;14312;52.614;13.496;2022-09-29T00:48:06;2.95;;;2.65;;
26696;SDS011;14312;52.614;13.496;2022-09-29T00:50:58;2.90;;;2.63;;
26696;SDS011;14312;52.614;13.496;2022-09-29T00:53:44;2.83;;;2.63;;
26696;SDS011;14312;52.614;13.496;2022-09-29T00:56:32;2.83;;;2.60;;
26696;SDS011;14312;52.614;13.496;2022-09-29T00:59:23;3.50;;;2.90;;
26696;SDS011;14312;52.614;13.496;2022-09-29T01:02:16;3.03;;;2.72;;
26696;SDS011;14312;52.614;13.496;2022-09-29T01:05:05;2.85;;;2.58;;
26696;SDS011;14312;52.614;13.496;2022-09-29T01:07:54;2.85;;;2.65;;
26696;SDS011;14312;52.614;13.496;2022-09-29T01:10:40;2.72;;;2.53;;
26696;SDS011;14312;52.614;13.496;2022-09-29T01:13:27;2.83;;;2.53;;
26696;SDS011;14312;52.614;13.496;2022-09-29T01:16:14;3.60;;;3.05;;
26696;SDS011;14312;52.614;13.496;2022-09-29T01:19:02;3.35;;;2.92;;
26696;SDS011;14312;52.614;13.496;2022-09-29T01:21:59;2.78;;;2.55;;
26696;SDS011;14312;52.614;13.496;2022-09-29T01:25:13;3.22;;;2.70;;
26696;SDS011;14312;52.614;13.496;2022-09-29T01:28:20;2.58;;;2.38;;
26696;SDS011;14312;52.614;13.496;2022-09-29T01:34:49;2.55;;;2.35;;
26696;SDS011;14312;52.614;13.496;2022-09-29T01:38:06;2.70;;;2.50;;
26696;SDS011;14312;52.614;13.496;2022-09-29T01:40:57;2.55;;;2.35;;
26696;SDS011;14312;52.614;13.496;2022-09-29T01:44:01;4.13;;;2.25;;
26696;SDS011;14312;52.614;13.496;2022-09-29T01:47:04;3.75;;;2.80;;
26696;SDS011;14312;52.614;13.496;2022-09-29T01:50:05;3.83;;;3.47;;
26696;SDS011;14312;52.614;13.496;2022-09-29T01:52:59;2.90;;;2.65;;
26696;SDS011;14312;52.614;13.496;2022-09-29T01:55:52;3.03;;;2.83;;
26696;SDS011;14312;52.614;13.496;2022-09-29T01:58:52;2.53;;;2.30;;
26696;SDS011;14312;52.614;13.496;2022-09-29T02:01:41;3.15;;;2.95;;
26696;SDS011;14312;52.614;13.496;2022-09-29T02:04:32;2.63;;;2.42;;
26696;SDS011;14312;52.614;13.496;2022-09-29T02:07:36;3.10;;;2.80;;
26696;SDS011;14312;52.614;13.496;2022-09-29T02:10:28;3.40;;;2.75;;
26696;SDS011;14312;52.614;13.496;2022-09-29T02:13:17;2.90;;;2.67;;
26696;SDS011;14312;52.614;13.496;2022-09-29T02:16:07;3.92;;;3.63;;
26696;SDS011;14312;52.614;13.496;2022-09-29T02:22:05;3.10;;;2.80;;
26696;SDS011;14312;52.614;13.496;2022-09-29T02:24:51;2.70;;;2.50;;
26696;SDS011;14312;52.614;13.496;2022-09-29T02:27:40;4.03;;;3.13;;
26696;SDS011;14312;52.614;13.496;2022-09-29T02:30:26;3.50;;;3.00;;
26696;SDS011;14312;52.614;13.496;2022-09-29T02:33:18;3.30;;;3.00;;
26696;SDS011;14312;52.614;13.496;2022-09-29T02:42:49;3.10;;;2.80;;
26696;SDS011;14312;52.614;13.496;2022-09-29T02:46:08;3.35;;;2.70;;
26696;SDS011;14312;52.614;13.496;2022-09-29T02:49:26;3.42;;;2.88;;
26696;SDS011;14312;52.614;13.496;2022-09-29T02:55:36;3.20;;;2.90;;
26696;SDS011;14312;52.614;13.496;2022-09-29T02:58:33;3.25;;;2.75;;
26696;SDS011;14312;52.614;13.496;2022-09-29T03:01:54;3.30;;;2.70;;
26696;SDS011;14312;52.614;13.496;2022-09-29T03:04:41;3.05;;;2.80;;
26696;SDS011;14312;52.614;13.496;2022-09-29T03:07:27;3.03;;;2.72;;
26696;SDS011;14312;52.614;13.496;2022-09-29T03:10:14;3.22;;;2.92;;
26696;SDS011;14312;52.614;13.496;2022-09-29T03:13:01;3.22;;;2.92;;
26696;SDS011;14312;52.614;13.496;2022-09-29T03:15:46;4.18;;;3.78;;
26696;SDS011;14312;52.614;13.496;2022-09-29T03:18:32;5.10;;;3.90;;
26696;SDS011;14312;52.614;13.496;2022-09-29T03:21:18;4.57;;;4.18;;
26696;SDS011;14312;52.614;13.496;2022-09-29T03:24:04;3.65;;;3.35;;
26696;SDS011;14312;52.614;13.496;2022-09-29T03:26:50;4.22;;;3.10;;
26696;SDS011;14312;52.614;13.496;2022-09-29T03:29:36;3.97;;;3.38;;
26696;SDS011;14312;52.614;13.496;2022-09-29T03:32:22;3.65;;;3.22;;
26696;SDS011;14312;52.614;13.496;2022-09-29T03:35:08;3.45;;;3.15;;
26696;SDS011;14312;52.614;13.496;2022-09-29T03:37:57;4.97;;;3.58;;
26696;SDS011;14312;52.614;13.496;2022-09-29T03:40:44;4.35;;;3.95;;
26696;SDS011;14312;52.614;13.496;2022-09-29T03:43:30;4.78;;;3.60;;
26696;SDS011;14312;52.614;13.496;2022-09-29T03:46:16;4.20;;;3.80;;
26696;SDS011;14312;52.614;13.496;2022-09-29T03:49:02;3.97;;;3.47;;
26696;SDS011;14312;52.614;13.496;2022-09-29T03:51:47;3.88;;;2.95;;
26696;SDS011;14312;52.614;13.496;2022-09-29T03:54:33;3.50;;;3.20;;
26696;SDS011;14312;52.614;13.496;2022-09-29T03:57:19;3.10;;;2.80;;
26696;SDS011;14312;52.614;13.496;2022-09-29T04:00:05;3.20;;;2.90;;
26696;SDS011;14312;52.614;13.496;2022-09-29T04:02:53;3.72;;;3.40;;
26696;SDS011;14312;52.614;13.496;2022-09-29T04:05:39;3.42;;;3.13;;
26696;SDS011;14312;52.614;13.496;2022-09-29T04:08:25;3.75;;;2.78;;
26696;SDS011;14312;52.614;13.496;2022-09-29T04:11:11;3.25;;;2.95;;
26696;SDS011;14312;52.614;13.496;2022-09-29T04:13:56;2.97;;;2.78;;
26696;SDS011;14312;52.614;13.496;2022-09-29T04:16:42;3.22;;;2.92;;
26696;SDS011;14312;52.614;13.496;2022-09-29T04:19:28;3.13;;;2.70;;
26696;SDS011;14312;52.614;13.496;2022-09-29T04:22:14;2.83;;;2.63;;
26696;SDS011;14312;52.614;13.496;2022-09-29T04:25:02;3.60;;;3.17;;
26696;SDS011;14312;52.614;13.496;2022-09-29T04:27:48;2.97;;;2.78;;
26696;SDS011;14312;52.614;13.496;2022-09-29T04:30:34;2.75;;;2.55;;
26696;SDS011;14312;52.614;13.496;2022-09-29T04:33:20;2.88;;;2.63;;
26696;SDS011;14312;52.614;13.496;2022-09-29T04:36:06;6.05;;;3.35;;
26696;SDS011;14312;52.614;13.496;2022-09-29T04:38:52;2.70;;;2.50;;
26696;SDS011;14312;52.614;13.496;2022-09-29T04:41:37;3.80;;;3.40;;
26696;SDS011;14312;52.614;13.496;2022-09-29T04:44:24;4.10;;;3.78;;
26696;SDS011;14312;52.614;13.496;2022-09-29T04:47:10;3.67;;;3.38;;
26696;SDS011;14312;52.614;13.496;2022-09-29T04:49:56;4.90;;;4.05;;
26696;SDS011;14312;52.614;13.496;2022-09-29T04:52:42;4.03;;;3.63;;
26696;SDS011;14312;52.614;13.496;2022-09-29T04:55:28;3.78;;;3.47;;
26696;SDS011;14312;52.614;13.496;2022-09-29T04:58:14;4.35;;;3.95;;
26696;SDS011;14312;52.614;13.496;2022-09-29T05:01:04;4.50;;;4.10;;
26696;SDS011;14312;52.614;13.496;2022-09-29T05:03:54;4.93;;;4.43;;
26696;SDS011;14312;52.614;13.496;2022-09-29T05:06:40;3.88;;;3.47;;
26696;SDS011;14312;52.614;13.496;2022-09-29T05:09:26;3.63;;;3.30;;
26696;SDS011;14312;52.614;13.496;2022-09-29T05:12:12;5.10;;;3.45;;
26696;SDS011;14312;52.614;13.496;2022-09-29T05:14:59;4.25;;;3.85;;
26696;SDS011;14312;52.614;13.496;2022-09-29T05:17:45;4.35;;;3.95;;
26696;SDS011;14312;52.614;13.496;2022-09-29T05:20:30;5.68;;;4.32;;
26696;SDS011;14312;52.614;13.496;2022-09-29T05:23:17;5.50;;;5.00;;
26696;SDS011;14312;52.614;13.496;2022-09-29T05:26:06;5.53;;;5.03;;
26696;SDS011;14312;52.614;13.496;2022-09-29T05:28:53;5.30;;;4.82;;
26696;SDS011;14312;52.614;13.496;2022-09-29T05:31:39;5.50;;;5.00;;
26696;SDS011;14312;52.614;13.496;2022-09-29T05:34:25;6.15;;;5.07;;
26696;SDS011;14312;52.614;13.496;2022-09-29T05:37:11;4.80;;;4.40;;
26696;SDS011;14312;52.614;13.496;2022-09-29T05:39:57;4.50;;;4.10;;
26696;SDS011;14312;52.614;13.496;2022-09-29T05:42:43;5.00;;;4.60;;
26696;SDS011;14312;52.614;13.496;2022-09-29T05:45:29;4.63;;;4.22;;
26696;SDS011;14312;52.614;13.496;2022-09-29T05:48:14;4.70;;;4.30;;
26696;SDS011;14312;52.614;13.496;2022-09-29T05:51:05;5.10;;;4.70;;
26696;SDS011;14312;52.614;13.496;2022-09-29T05:53:54;4.95;;;4.18;;
26696;SDS011;14312;52.614;13.496;2022-09-29T05:56:39;4.55;;;4.15;;
26696;SDS011;14312;52.614;13.496;2022-09-29T05:59:25;4.60;;;4.20;;
26696;SDS011;14312;52.614;13.496;2022-09-29T06:02:11;4.70;;;4.03;;
26696;SDS011;14312;52.614;13.496;2022-09-29T06:04:57;4.05;;;3.65;;
26696;SDS011;14312;52.614;13.496;2022-09-29T06:07:43;4.95;;;4.55;;
26696;SDS011;14312;52.614;13.496;2022-09-29T06:10:29;5.75;;;5.10;;
26696;SDS011;14312;52.614;13.496;2022-09-29T06:13:15;5.15;;;4.75;;
26696;SDS011;14312;52.614;13.496;2022-09-29T06:16:00;5.60;;;5.10;;
26696;SDS011;14312;52.614;13.496;2022-09-29T06:18:46;5.90;;;4.80;;
26696;SDS011;14312;52.614;13.496;2022-09-29T06:21:32;5.63;;;5.13;;
26696;SDS011;14312;52.614;13.496;2022-09-29T06:24:19;5.45;;;4.95;;
26696;SDS011;14312;52.614;13.496;2022-09-29T06:27:05;4.22;;;3.92;;
26696;SDS011;14312;52.614;13.496;2022-09-29T06:29:51;4.45;;;4.05;;
26696;SDS011;14312;52.614;13.496;2022-09-29T06:32:37;4.07;;;3.78;;
26696;SDS011;14312;52.614;13.496;2022-09-29T06:35:23;4.45;;;4.05;;
26696;SDS011;14312;52.614;13.496;2022-09-29T06:38:28;6.72;;;6.13;;
26696;SDS011;14312;52.614;13.496;2022-09-29T06:41:14;5.63;;;5.13;;
26696;SDS011;14312;52.614;13.496;2022-09-29T06:44:00;6.10;;;5.60;;
26696;SDS011;14312;52.614;13.496;2022-09-29T06:46:46;6.10;;;5.50;;
26696;SDS011;14312;52.614;13.496;2022-09-29T06:49:32;6.10;;;5.55;;
26696;SDS011;14312;52.614;13.496;2022-09-29T06:52:18;6.07;;;5.47;;
26696;SDS011;14312;52.614;13.496;2022-09-29T06:55:04;6.07;;;5.47;;
26696;SDS011;14312;52.614;13.496;2022-09-29T06:57:50;6.80;;;6.15;;
26696;SDS011;14312;52.614;13.496;2022-09-29T07:00:36;7.72;;;6.68;;
26696;SDS011;14312;52.614;13.496;2022-09-29T07:03:22;6.53;;;5.93;;
26696;SDS011;14312;52.614;13.496;2022-09-29T07:06:09;6.30;;;5.78;;
26696;SDS011;14312;52.614;13.496;2022-09-29T07:08:55;6.15;;;5.50;;
26696;SDS011;14312;52.614;13.496;2022-09-29T07:11:43;6.55;;;5.78;;
26696;SDS011;14312;52.614;13.496;2022-09-29T07:14:31;5.55;;;5.05;;
26696;SDS011;14312;52.614;13.496;2022-09-29T07:17:17;5.18;;;4.70;;
26696;SDS011;14312;52.614;13.496;2022-09-29T07:20:02;5.05;;;4.55;;
26696;SDS011;14312;52.614;13.496;2022-09-29T07:22:49;6.53;;;5.93;;
26696;SDS011;14312;52.614;13.496;2022-09-29T07:25:34;5.97;;;5.47;;
26696;SDS011;14312;52.614;13.496;2022-09-29T07:28:20;8.55;;;7.68;;
26696;SDS011;14312;52.614;13.496;2022-09-29T07:31:08;7.63;;;6.93;;
26696;SDS011;14312;52.614;13.496;2022-09-29T07:33:56;8.75;;;6.85;;
26696;SDS011;14312;52.614;13.496;2022-09-29T07:36:42;9.27;;;8.38;;
26696;SDS011;14312;52.614;13.496;2022-09-29T07:39:28;8.48;;;7.68;;
26696;SDS011;14312;52.614;13.496;2022-09-29T07:42:14;8.70;;;7.80;;
26696;SDS011;14312;52.614;13.496;2022-09-29T07:44:59;8.93;;;8.02;;
26696;SDS011;14312;52.614;13.496;2022-09-29T07:47:45;8.43;;;7.57;;
26696;SDS011;14312;52.614;13.496;2022-09-29T07:50:31;7.60;;;6.80;;
26696;SDS011;14312;52.614;13.496;2022-09-29T07:53:17;6.13;;;5.53;;
26696;SDS011;14312;52.614;13.496;2022-09-29T07:58:49;8.13;;;6.15;;
26696;SDS011;14312;52.614;13.496;2022-09-29T08:01:35;6.85;;;6.13;;
26696;SDS011;14312;52.614;13.496;2022-09-29T08:04:21;7.35;;;6.65;;
26696;SDS011;14312;52.614;13.496;2022-09-29T08:07:07;8.15;;;7.43;;
26696;SDS011;14312;52.614;13.496;2022-09-29T08:09:53;10.23;;;9.23;;
26696;SDS011;14312;52.614;13.496;2022-09-29T08:12:38;10.00;;;8.82;;
26696;SDS011;14312;52.614;13.496;2022-09-29T08:15:25;11.20;;;9.52;;
26696;SDS011;14312;52.614;13.496;2022-09-29T08:18:11;11.13;;;10.02;;
26696;SDS011;14312;52.614;13.496;2022-09-29T08:20:57;9.45;;;8.43;;
26696;SDS011;14312;52.614;13.496;2022-09-29T08:23:42;8.68;;;7.70;;
26696;SDS011;14312;52.614;13.496;2022-09-29T08:26:30;9.50;;;8.60;;
26696;SDS011;14312;52.614;13.496;2022-09-29T08:29:17;7.35;;;6.68;;
26696;SDS011;14312;52.614;13.496;2022-09-29T08:32:03;9.00;;;8.15;;
26696;SDS011;14312;52.614;13.496;2022-09-29T08:34:48;9.18;;;8.25;;
26696;SDS011;14312;52.614;13.496;2022-09-29T08:37:34;10.93;;;9.43;;
26696;SDS011;14312;52.614;13.496;2022-09-29T08:40:20;10.23;;;7.82;;
26696;SDS011;14312;52.614;13.496;2022-09-29T08:43:10;8.85;;;7.88;;
26696;SDS011;14312;52.614;13.496;2022-09-29T08:49:10;10.63;;;9.60;;
26696;SDS011;14312;52.614;13.496;2022-09-29T08:52:14;8.70;;;7.82;;
26696;SDS011;14312;52.614;13.496;2022-09-29T08:55:19;11.70;;;10.60;;
26696;SDS011;14312;52.614;13.496;2022-09-29T08:58:11;10.23;;;9.10;;
26696;SDS011;14312;52.614;13.496;2022-09-29T09:01:06;11.50;;;10.40;;
26696;SDS011;14312;52.614;13.496;2022-09-29T09:13:37;10.27;;;9.30;;
26696;SDS011;14312;52.614;13.496;2022-09-29T09:16:53;12.73;;;10.30;;
26696;SDS011;14312;52.614;13.496;2022-09-29T09:23:13;10.73;;;9.55;;
26696;SDS011;14312;52.614;13.496;2022-09-29T09:26:06;11.60;;;10.35;;
26696;SDS011;14312;52.614;13.496;2022-09-29T09:28:56;9.75;;;8.85;;
26696;SDS011;14312;52.614;13.496;2022-09-29T09:31:50;11.77;;;10.68;;
26696;SDS011;14312;52.614;13.496;2022-09-29T09:34:43;10.45;;;9.45;;
26696;SDS011;14312;52.614;13.496;2022-09-29T09:37:38;8.50;;;7.70;;
26696;SDS011;14312;52.614;13.496;2022-09-29T09:40:26;11.15;;;9.98;;
26696;SDS011;14312;52.614;13.496;2022-09-29T09:43:23;12.35;;;10.95;;
26696;SDS011;14312;52.614;13.496;2022-09-29T09:49:40;12.95;;;11.73;;
26696;SDS011;14312;52.614;13.496;2022-09-29T09:52:43;12.35;;;10.40;;
26696;SDS011;14312;52.614;13.496;2022-09-29T09:55:39;13.07;;;11.88;;
26696;SDS011;14312;52.614;13.496;2022-09-29T09:58:35;10.90;;;9.85;;
26696;SDS011;14312;52.614;13.496;2022-09-29T10:01:39;12.30;;;11.20;;
26696;SDS011;14312;52.614;13.496;2022-09-29T10:04:25;10.35;;;9.35;;
26696;SDS011;14312;52.614;13.496;2022-09-29T10:07:11;11.40;;;9.88;;
26696;SDS011;14312;52.614;13.496;2022-09-29T10:09:56;10.73;;;9.63;;
26696;SDS011;14312;52.614;13.496;2022-09-29T10:13:03;10.00;;;8.63;;
26696;SDS011;14312;52.614;13.496;2022-09-29T10:15:55;10.10;;;9.20;;
26696;SDS011;14312;52.614;13.496;2022-09-29T10:18:46;9.65;;;8.75;;
26696;SDS011;14312;52.614;13.496;2022-09-29T10:21:38;9.07;;;8.15;;
26696;SDS011;14312;52.614;13.496;2022-09-29T10:24:29;7.63;;;6.93;;
26696;SDS011;14312;52.614;13.496;2022-09-29T10:27:18;8.88;;;7.68;;
26696;SDS011;14312;52.614;13.496;2022-09-29T10:30:15;9.02;;;8.23;;
26696;SDS011;14312;52.614;13.496;2022-09-29T10:33:03;6.55;;;5.95;;
26696;SDS011;14312;52.614;13.496;2022-09-29T10:35:50;7.38;;;6.53;;
26696;SDS011;14312;52.614;13.496;2022-09-29T10:38:51;6.63;;;6.03;;
26696;SDS011;14312;52.614;13.496;2022-09-29T10:41:48;7.03;;;6.43;;
26696;SDS011;14312;52.614;13.496;2022-09-29T10:44:38;7.03;;;6.38;;
26696;SDS011;14312;52.614;13.496;2022-09-29T10:47:24;8.13;;;7.32;;
26696;SDS011;14312;52.614;13.496;2022-09-29T10:56:19;8.32;;;7.57;;
26696;SDS011;14312;52.614;13.496;2022-09-29T10:59:12;7.43;;;6.72;;
26696;SDS011;14312;52.614;13.496;2022-09-29T11:01:58;7.03;;;6.43;;
26696;SDS011;14312;52.614;13.496;2022-09-29T11:04:45;8.02;;;7.30;;
26696;SDS011;14312;52.614;13.496;2022-09-29T11:07:32;8.02;;;7.30;;
26696;SDS011;14312;52.614;13.496;2022-09-29T11:10:32;7.85;;;5.85;;
26696;SDS011;14312;52.614;13.496;2022-09-29T11:13:31;7.10;;;6.50;;
26696;SDS011;14312;52.614;13.496;2022-09-29T11:16:24;7.38;;;6.35;;
26696;SDS011;14312;52.614;13.496;2022-09-29T11:19:24;6.55;;;5.95;;
26696;SDS011;14312;52.614;13.496;2022-09-29T11:22:18;5.70;;;5.22;;
26696;SDS011;14312;52.614;13.496;2022-09-29T11:28:31;4.90;;;4.50;;
26696;SDS011;14312;52.614;13.496;2022-09-29T11:31:30;6.45;;;5.85;;
26696;SDS011;14312;52.614;13.496;2022-09-29T11:37:47;6.10;;;5.35;;
26696;SDS011;14312;52.614;13.496;2022-09-29T11:40:56;5.05;;;4.55;;
26696;SDS011;14312;52.614;13.496;2022-09-29T11:43:50;3.42;;;3.13;;
26696;SDS011;14312;52.614;13.496;2022-09-29T11:46:55;4.60;;;4.20;;
26696;SDS011;14312;52.614;13.496;2022-09-29T11:56:29;6.13;;;5.53;;
26696;SDS011;14312;52.614;13.496;2022-09-29T12:02:52;4.93;;;4.53;;
26696;SDS011;14312;52.614;13.496;2022-09-29T12:12:23;4.97;;;4.55;;
26696;SDS011;14312;52.614;13.496;2022-09-29T12:15:24;4.32;;;3.92;;
26696;SDS011;14312;52.614;13.496;2022-09-29T12:18:21;5.30;;;4.63;;
26696;SDS011;14312;52.614;13.496;2022-09-29T12:21:11;5.43;;;4.88;;
26696;SDS011;14312;52.614;13.496;2022-09-29T12:24:00;5.88;;;5.28;;
26696;SDS011;14312;52.614;13.496;2022-09-29T12:26:50;5.15;;;4.75;;
26696;SDS011;14312;52.614;13.496;2022-09-29T12:29:38;5.20;;;4.72;;
26696;SDS011;14312;52.614;13.496;2022-09-29T12:32:29;4.65;;;4.25;;
26696;SDS011;14312;52.614;13.496;2022-09-29T12:38:34;4.22;;;3.83;;
26696;SDS011;14312;52.614;13.496;2022-09-29T12:41:27;4.95;;;4.45;;
26696;SDS011;14312;52.614;13.496;2022-09-29T12:44:18;4.72;;;4.35;;
26696;SDS011;14312;52.614;13.496;2022-09-29T12:47:13;4.38;;;3.97;;
26696;SDS011;14312;52.614;13.496;2022-09-29T12:50:08;4.20;;;3.83;;
26696;SDS011;14312;52.614;13.496;2022-09-29T12:56:52;4.00;;;3.60;;
26696;SDS011;14312;52.614;13.496;2022-09-29T13:09:25;4.13;;;3.83;;
26696;SDS011;14312;52.614;13.496;2022-09-29T13:12:28;3.08;;;2.88;;
26696;SDS011;14312;52.614;13.496;2022-09-29T13:15:34;4.30;;;3.90;;
26696;SDS011;14312;52.614;13.496;2022-09-29T13:21:41;2.78;;;2.58;;
26696;SDS011;14312;52.614;13.496;2022-09-29T13:24:48;2.67;;;2.47;;
26696;SDS011;14312;52.614;13.496;2022-09-29T13:27:44;4.05;;;3.70;;
26696;SDS011;14312;52.614;13.496;2022-09-29T13:30:32;4.60;;;4.07;;
26696;SDS011;14312;52.614;13.496;2022-09-29T13:33:23;3.17;;;2.88;;
26696;SDS011;14312;52.614;13.496;2022-09-29T13:36:10;3.38;;;3.13;;
26696;SDS011;14312;52.614;13.496;2022-09-29T13:39:07;3.53;;;3.22;;
26696;SDS011;14312;52.614;13.496;2022-09-29T13:43:15;3.15;;;2.85;;
26696;SDS011;14312;52.614;13.496;2022-09-29T13:51:20;3.10;;;2.75;;
26696;SDS011;14312;52.614;13.496;2022-09-29T14:00:10;3.53;;;2.20;;
26696;SDS011;14312;52.614;13.496;2022-09-29T14:03:02;3.20;;;2.90;;
26696;SDS011;14312;52.614;13.496;2022-09-29T14:05:52;3.25;;;2.95;;
26696;SDS011;14312;52.614;13.496;2022-09-29T14:08:49;3.03;;;2.83;;
26696;SDS011;14312;52.614;13.496;2022-09-29T14:11:37;2.53;;;2.33;;
26696;SDS011;14312;52.614;13.496;2022-09-29T14:14:35;4.10;;;2.90;;
26696;SDS011;14312;52.614;13.496;2022-09-29T14:17:31;3.75;;;3.10;;
26696;SDS011;14312;52.614;13.496;2022-09-29T14:20:25;2.60;;;2.40;;
26696;SDS011;14312;52.614;13.496;2022-09-29T14:23:15;3.20;;;3.00;;
26696;SDS011;14312;52.614;13.496;2022-09-29T14:26:47;2.88;;;2.67;;
26696;SDS011;14312;52.614;13.496;2022-09-29T14:29:40;2.88;;;2.67;;
26696;SDS011;14312;52.614;13.496;2022-09-29T14:32:34;3.33;;;3.03;;
26696;SDS011;14312;52.614;13.496;2022-09-29T14:35:28;3.05;;;2.83;;
26696;SDS011;14312;52.614;13.496;2022-09-29T14:38:28;3.50;;;3.13;;
26696;SDS011;14312;52.614;13.496;2022-09-29T14:41:22;3.65;;;3.35;;
26696;SDS011;14312;52.614;13.496;2022-09-29T14:44:21;3.42;;;3.13;;
26696;SDS011;14312;52.614;13.496;2022-09-29T14:47:22;2.58;;;2.38;;
26696;SDS011;14312;52.614;13.496;2022-09-29T14:54:03;2.83;;;2.63;;
26696;SDS011;14312;52.614;13.496;2022-09-29T15:00:10;2.03;;;1.92;;
26696;SDS011;14312;52.614;13.496;2022-09-29T15:03:00;3.08;;;2.80;;
26696;SDS011;14312;52.614;13.496;2022-09-29T15:05:46;3.25;;;3.00;;
26696;SDS011;14312;52.614;13.496;2022-09-29T15:08:32;2.97;;;2.60;;
26696;SDS011;14312;52.614;13.496;2022-09-29T15:11:32;2.45;;;2.25;;
26696;SDS011;14312;52.614;13.496;2022-09-29T15:14:26;3.40;;;2.30;;
26696;SDS011;14312;52.614;13.496;2022-09-29T15:17:26;3.20;;;2.40;;
26696;SDS011;14312;52.614;13.496;2022-09-29T15:26:21;2.40;;;2.20;;
26696;SDS011;14312;52.614;13.496;2022-09-29T15:29:09;2.50;;;2.30;;
26696;SDS011;14312;52.614;13.496;2022-09-29T15:31:59;2.50;;;2.30;;
26696;SDS011;14312;52.614;13.496;2022-09-29T15:34:47;2.10;;;2.00;;
26696;SDS011;14312;52.614;13.496;2022-09-29T15:37:52;1.92;;;1.83;;
26696;SDS011;14312;52.614;13.496;2022-09-29T15:40:43;1.80;;;1.70;;
26696;SDS011;14312;52.614;13.496;2022-09-29T15:43:41;2.17;;;1.98;;
26696;SDS011;14312;52.614;13.496;2022-09-29T15:46:37;3.13;;;1.90;;
26696;SDS011;14312;52.614;13.496;2022-09-29T15:49:26;1.65;;;1.55;;
26696;SDS011;14312;52.614;13.496;2022-09-29T15:52:13;1.80;;;1.70;;
26696;SDS011;14312;52.614;13.496;2022-09-29T15:55:10;3.15;;;1.92;;
26696;SDS011;14312;52.614;13.496;2022-09-29T15:58:01;2.50;;;2.30;;
26696;SDS011;14312;52.614;13.496;2022-09-29T16:01:11;1.85;;;1.75;;
26696;SDS011;14312;52.614;13.496;2022-09-29T16:03:58;1.95;;;1.85;;
26696;SDS011;14312;52.614;13.496;2022-09-29T16:06:46;1.80;;;1.70;;
26696;SDS011;14312;52.614;13.496;2022-09-29T16:09:32;2.08;;;1.58;;
26696;SDS011;14312;52.614;13.496;2022-09-29T16:12:20;1.63;;;1.45;;
26696;SDS011;14312;52.614;13.496;2022-09-29T16:15:06;2.05;;;1.80;;
26696;SDS011;14312;52.614;13.496;2022-09-29T16:18:03;1.63;;;1.52;;
26696;SDS011;14312;52.614;13.496;2022-09-29T16:20:52;1.48;;;1.38;;
26696;SDS011;14312;52.614;13.496;2022-09-29T16:23:42;1.55;;;1.45;;
26696;SDS011;14312;52.614;13.496;2022-09-29T16:26:52;1.60;;;1.50;;
26696;SDS011;14312;52.614;13.496;2022-09-29T16:29:40;1.70;;;1.60;;
26696;SDS011;14312;52.614;13.496;2022-09-29T16:32:34;1.50;;;1.40;;
26696;SDS011;14312;52.614;13.496;2022-09-29T16:38:31;2.10;;;2.00;;
26696;SDS011;14312;52.614;13.496;2022-09-29T16:41:29;1.73;;;1.63;;
26696;SDS011;14312;52.614;13.496;2022-09-29T16:47:21;2.28;;;1.90;;
26696;SDS011;14312;52.614;13.496;2022-09-29T16:50:11;2.97;;;1.60;;
26696;SDS011;14312;52.614;13.496;2022-09-29T16:52:58;2.05;;;1.50;;
26696;SDS011;14312;52.614;13.496;2022-09-29T16:55:53;1.70;;;1.60;;
26696;SDS011;14312;52.614;13.496;2022-09-29T16:58:44;1.83;;;1.65;;
26696;SDS011;14312;52.614;13.496;2022-09-29T17:01:45;1.63;;;1.48;;
26696;SDS011;14312;52.614;13.496;2022-09-29T17:04:32;2.00;;;1.80;;
26696;SDS011;14312;52.614;13.496;2022-09-29T17:07:19;2.35;;;2.03;;
26696;SDS011;14312;52.614;13.496;2022-09-29T17:10:09;4.63;;;2.40;;
26696;SDS011;14312;52.614;13.496;2022-09-29T17:13:00;3.25;;;2.20;;
26696;SDS011;14312;52.614;13.496;2022-09-29T17:15:47;2.92;;;2.20;;
26696;SDS011;14312;52.614;13.496;2022-09-29T17:18:35;2.25;;;2.05;;
26696;SDS011;14312;52.614;13.496;2022-09-29T17:21:21;2.38;;;2.15;;
26696;SDS011;14312;52.614;13.496;2022-09-29T17:24:07;1.95;;;1.85;;
26696;SDS011;14312;52.614;13.496;2022-09-29T17:26:53;2.45;;;2.25;;
26696;SDS011;14312;52.614;13.496;2022-09-29T17:29:57;2.60;;;2.40;;
26696;SDS011;14312;52.614;13.496;2022-09-29T17:32:43;2.83;;;2.53;;
26696;SDS011;14312;52.614;13.496;2022-09-29T17:35:32;2.58;;;2.33;;
26696;SDS011;14312;52.614;13.496;2022-09-29T17:38:19;2.53;;;2.33;;
26696;SDS011;14312;52.614;13.496;2022-09-29T17:41:05;2.10;;;2.00;;
26696;SDS011;14312;52.614;13.496;2022-09-29T17:43:51;3.72;;;2.20;;
26696;SDS011;14312;52.614;13.496;2022-09-29T17:46:37;1.80;;;1.70;;
26696;SDS011;14312;52.614;13.496;2022-09-29T17:49:23;1.83;;;1.73;;
26696;SDS011;14312;52.614;13.496;2022-09-29T17:52:09;2.10;;;1.88;;
26696;SDS011;14312;52.614;13.496;2022-09-29T17:54:59;2.50;;;2.28;;
26696;SDS011;14312;52.614;13.496;2022-09-29T17:57:45;2.28;;;1.73;;
26696;SDS011;14312;52.614;13.496;2022-09-29T18:00:35;1.95;;;1.85;;
26696;SDS011;14312;52.614;13.496;2022-09-29T18:03:22;1.90;;;1.80;;
26696;SDS011;14312;52.614;13.496;2022-09-29T18:06:09;1.83;;;1.73;;
26696;SDS011;14312;52.614;13.496;2022-09-29T18:09:15;1.90;;;1.80;;
26696;SDS011;14312;52.614;13.496;2022-09-29T18:12:02;1.80;;;1.70;;
26696;SDS011;14312;52.614;13.496;2022-09-29T18:14:48;2.00;;;1.90;;
26696;SDS011;14312;52.614;13.496;2022-09-29T18:17:33;2.33;;;2.13;;
26696;SDS011;14312;52.614;13.496;2022-09-29T18:20:19;2.95;;;2.05;;
26696;SDS011;14312;52.614;13.496;2022-09-29T18:23:06;2.08;;;1.92;;
26696;SDS011;14312;52.614;13.496;2022-09-29T18:25:53;1.77;;;1.67;;
26696;SDS011;14312;52.614;13.496;2022-09-29T18:28:40;1.88;;;1.77;;
26696;SDS011;14312;52.614;13.496;2022-09-29T18:31:27;2.25;;;2.05;;
26696;SDS011;14312;52.614;13.496;2022-09-29T18:34:14;1.90;;;1.80;;
26696;SDS011;14312;52.614;13.496;2022-09-29T18:37:01;2.78;;;2.20;;
26696;SDS011;14312;52.614;13.496;2022-09-29T18:39:47;2.08;;;1.90;;
26696;SDS011;14312;52.614;13.496;2022-09-29T18:42:38;2.70;;;2.50;;
26696;SDS011;14312;52.614;13.496;2022-09-29T18:45:26;2.28;;;2.08;;
26696;SDS011;14312;52.614;13.496;2022-09-29T18:48:14;2.53;;;2.22;;
26696;SDS011;14312;52.614;13.496;2022-09-29T18:51:00;2.30;;;2.10;;
26696;SDS011;14312;52.614;13.496;2022-09-29T18:53:46;2.63;;;2.35;;